createdAt,value
2018-03-02T00:00:07.901Z,-9.20
2018-03-02T00:00:42.359Z,-9.20
2018-03-02T00:01:16.040Z,-9.20
2018-03-02T00:01:49.728Z,-9.20
2018-03-02T00:02:23.072Z,-9.20
2018-03-02T00:02:57.537Z,-9.20
2018-03-02T00:03:31.248Z,-9.20
2018-03-02T00:04:04.961Z,-9.20
2018-03-02T00:04:39.394Z,-9.20
2018-03-02T00:05:13.084Z,-9.20
2018-03-02T00:05:46.750Z,-9.20
2018-03-02T00:06:21.208Z,-9.30
2018-03-02T00:06:54.580Z,-9.30
2018-03-02T00:07:28.273Z,-9.30
2018-03-02T00:08:01.963Z,-9.30
2018-03-02T00:08:35.640Z,-9.30
2018-03-02T00:09:09.352Z,-9.30
2018-03-02T00:09:43.039Z,-9.30
2018-03-02T00:10:16.084Z,-9.30
2018-03-02T00:10:49.779Z,-9.30
2018-03-02T00:11:23.452Z,-9.30
2018-03-02T00:11:57.896Z,-9.30
2018-03-02T00:12:31.581Z,-9.30
2018-03-02T00:13:05.274Z,-9.30
2018-03-02T00:13:38.962Z,-9.30
2018-03-02T00:14:12.929Z,-9.30
2018-03-02T00:14:47.384Z,-9.30
2018-03-02T00:15:21.064Z,-9.30
2018-03-02T00:15:54.743Z,-9.30
2018-03-02T00:16:28.451Z,-9.30
2018-03-02T00:17:02.174Z,-9.30
2018-03-02T00:17:36.631Z,-9.30
2018-03-02T00:18:09.981Z,-9.30
2018-03-02T00:18:44.104Z,-9.30
2018-03-02T00:19:17.840Z,-9.30
2018-03-02T00:19:51.529Z,-9.30
2018-03-02T00:20:25.222Z,-9.30
2018-03-02T00:20:58.918Z,-9.30
2018-03-02T00:21:32.601Z,-9.30
2018-03-02T00:22:06.291Z,-9.30
2018-03-02T00:22:39.990Z,-9.30
2018-03-02T00:23:13.719Z,-9.30
2018-03-02T00:23:47.419Z,-9.30
2018-03-02T00:24:21.156Z,-9.30
2018-03-02T00:24:54.839Z,-9.40
2018-03-02T00:25:28.372Z,-9.40
2018-03-02T00:26:02.062Z,-9.40
2018-03-02T00:26:35.771Z,-9.40
2018-03-02T00:27:09.471Z,-9.40
2018-03-02T00:27:43.151Z,-9.40
2018-03-02T00:28:16.908Z,-9.40
2018-03-02T00:28:52.857Z,-9.40
2018-03-02T00:29:27.351Z,-9.40
2018-03-02T00:30:01.806Z,-9.40
2018-03-02T00:30:35.495Z,-9.40
2018-03-02T00:31:09.186Z,-9.40
2018-03-02T00:31:42.881Z,-9.40
2018-03-02T00:32:16.619Z,-9.40
2018-03-02T00:32:51.107Z,-9.50
2018-03-02T00:33:24.795Z,-9.50
2018-03-02T00:33:58.210Z,-9.50
2018-03-02T00:34:32.705Z,-9.50
2018-03-02T00:35:06.435Z,-9.40
2018-03-02T00:35:40.117Z,-9.40
2018-03-02T00:36:13.840Z,-9.50
2018-03-02T00:36:47.553Z,-9.40
2018-03-02T00:37:21.245Z,-9.40
2018-03-02T00:37:54.941Z,-9.50
2018-03-02T00:38:29.438Z,-9.50
2018-03-02T00:39:03.146Z,-9.50
2018-03-02T00:39:36.873Z,-9.50
2018-03-02T00:40:09.993Z,-9.50
2018-03-02T00:40:43.737Z,-9.50
2018-03-02T00:41:17.422Z,-9.50
2018-03-02T00:41:53.738Z,-9.50
2018-03-02T00:42:27.426Z,-9.50
2018-03-02T00:43:01.119Z,-9.50
2018-03-02T00:43:34.833Z,-9.50
2018-03-02T00:44:09.571Z,-9.50
2018-03-02T00:44:43.310Z,-9.50
2018-03-02T00:45:17.005Z,-9.50
2018-03-02T00:45:53.380Z,-9.50
2018-03-02T00:46:27.346Z,-9.50
2018-03-02T00:47:01.049Z,-9.50
2018-03-02T00:47:35.489Z,-9.50
2018-03-02T00:48:10.671Z,-9.50
2018-03-02T00:48:44.555Z,-9.50
2018-03-02T00:49:18.242Z,-9.50
2018-03-02T00:49:52.300Z,-9.50
2018-03-02T00:50:25.800Z,-9.50
2018-03-02T00:50:59.673Z,-9.50
2018-03-02T00:51:35.379Z,-9.50
2018-03-02T00:52:09.272Z,-9.50
2018-03-02T00:52:42.626Z,-9.50
2018-03-02T00:53:16.325Z,-9.50
2018-03-02T00:53:52.247Z,-9.50
2018-03-02T00:54:25.930Z,-9.50
2018-03-02T00:54:59.622Z,-9.50
2018-03-02T00:55:36.082Z,-9.50
2018-03-02T00:56:09.587Z,-9.50
2018-03-02T00:56:43.276Z,-9.50
2018-03-02T00:57:16.945Z,-9.50
2018-03-02T00:57:50.622Z,-9.50
2018-03-02T00:58:24.319Z,-9.50
2018-03-02T00:58:58.038Z,-9.50
2018-03-02T00:59:31.735Z,-9.50
2018-03-02T01:00:05.434Z,-9.50
2018-03-02T01:00:39.109Z,-9.50
2018-03-02T01:01:12.786Z,-9.50
2018-03-02T01:01:46.472Z,-9.50
2018-03-02T01:02:20.197Z,-9.50
2018-03-02T01:02:53.734Z,-9.50
2018-03-02T01:03:27.112Z,-9.50
2018-03-02T01:04:00.827Z,-9.50
2018-03-02T01:04:34.521Z,-9.60
2018-03-02T01:05:08.274Z,-9.60
2018-03-02T01:05:41.978Z,-9.50
2018-03-02T01:06:15.689Z,-9.60
2018-03-02T01:06:49.396Z,-9.60
2018-03-02T01:07:23.097Z,-9.60
2018-03-02T01:07:56.782Z,-9.60
2018-03-02T01:08:30.655Z,-9.60
2018-03-02T01:09:03.502Z,-9.60
2018-03-02T01:09:36.847Z,-9.60
2018-03-02T01:10:10.254Z,-9.60
2018-03-02T01:10:43.924Z,-9.60
2018-03-02T01:11:17.279Z,-9.60
2018-03-02T01:11:50.959Z,-9.60
2018-03-02T01:12:24.658Z,-9.60
2018-03-02T01:12:58.338Z,-9.60
2018-03-02T01:13:32.026Z,-9.60
2018-03-02T01:14:05.427Z,-9.60
2018-03-02T01:14:39.200Z,-9.60
2018-03-02T01:15:12.924Z,-9.60
2018-03-02T01:15:46.280Z,-9.60
2018-03-02T01:16:19.637Z,-9.60
2018-03-02T01:16:53.387Z,-9.60
2018-03-02T01:17:27.871Z,-9.60
2018-03-02T01:18:03.080Z,-9.60
2018-03-02T01:18:36.800Z,-9.70
2018-03-02T01:19:10.469Z,-9.60
2018-03-02T01:19:44.158Z,-9.70
2018-03-02T01:20:17.872Z,-9.70
2018-03-02T01:20:51.232Z,-9.70
2018-03-02T01:21:24.920Z,-9.70
2018-03-02T01:21:58.606Z,-9.70
2018-03-02T01:22:32.298Z,-9.70
2018-03-02T01:23:05.989Z,-9.70
2018-03-02T01:23:39.737Z,-9.70
2018-03-02T01:24:13.243Z,-9.70
2018-03-02T01:24:46.936Z,-9.70
2018-03-02T01:25:20.722Z,-9.70
2018-03-02T01:25:54.410Z,-9.70
2018-03-02T01:26:28.102Z,-9.70
2018-03-02T01:27:01.795Z,-9.70
2018-03-02T01:27:35.177Z,-9.70
2018-03-02T01:28:08.674Z,-9.70
2018-03-02T01:28:42.174Z,-9.70
2018-03-02T01:29:15.861Z,-9.70
2018-03-02T01:29:49.372Z,-9.70
2018-03-02T01:30:22.546Z,-9.70
2018-03-02T01:30:56.470Z,-9.70
2018-03-02T01:31:30.916Z,-9.70
2018-03-02T01:32:04.330Z,-9.70
2018-03-02T01:32:37.692Z,-9.70
2018-03-02T01:33:11.366Z,-9.70
2018-03-02T01:33:45.043Z,-9.70
2018-03-02T01:34:18.738Z,-9.70
2018-03-02T01:34:52.423Z,-9.70
2018-03-02T01:35:26.136Z,-9.70
2018-03-02T01:35:59.830Z,-9.70
2018-03-02T01:36:33.521Z,-9.70
2018-03-02T01:37:07.203Z,-9.70
2018-03-02T01:37:40.886Z,-9.70
2018-03-02T01:38:14.054Z,-9.70
2018-03-02T01:38:47.741Z,-9.70
2018-03-02T01:39:21.428Z,-9.70
2018-03-02T01:39:55.135Z,-9.80
2018-03-02T01:40:28.855Z,-9.70
2018-03-02T01:41:02.550Z,-9.70
2018-03-02T01:41:36.244Z,-9.80
2018-03-02T01:42:09.974Z,-9.80
2018-03-02T01:42:43.658Z,-9.70
2018-03-02T01:43:17.029Z,-9.70
2018-03-02T01:43:51.561Z,-9.70
2018-03-02T01:44:25.059Z,-9.80
2018-03-02T01:44:58.575Z,-9.70
2018-03-02T01:45:32.084Z,-9.70
2018-03-02T01:46:06.585Z,-9.70
2018-03-02T01:46:40.282Z,-9.80
2018-03-02T01:47:14.726Z,-9.70
2018-03-02T01:47:48.404Z,-9.70
2018-03-02T01:48:22.102Z,-9.70
2018-03-02T01:48:55.806Z,-9.70
2018-03-02T01:49:29.506Z,-9.70
2018-03-02T01:50:02.869Z,-9.70
2018-03-02T01:50:36.590Z,-9.70
2018-03-02T01:51:09.608Z,-9.70
2018-03-02T01:51:49.617Z,-9.70
2018-03-02T01:52:23.285Z,-9.70
2018-03-02T01:52:56.967Z,-9.70
2018-03-02T01:53:30.669Z,-9.70
2018-03-02T01:54:04.196Z,-9.70
2018-03-02T01:54:38.625Z,-9.70
2018-03-02T01:55:12.305Z,-9.70
2018-03-02T01:55:46.030Z,-9.70
2018-03-02T01:56:19.712Z,-9.70
2018-03-02T01:56:53.386Z,-9.70
2018-03-02T01:57:27.086Z,-9.70
2018-03-02T01:58:00.786Z,-9.70
2018-03-02T01:58:34.465Z,-9.70
2018-03-02T01:59:08.158Z,-9.70
2018-03-02T01:59:41.850Z,-9.70
2018-03-02T02:00:18.303Z,-9.80
2018-03-02T02:00:51.682Z,-9.80
2018-03-02T02:01:25.386Z,-9.80
2018-03-02T02:01:59.089Z,-9.80
2018-03-02T02:02:32.779Z,-9.80
2018-03-02T02:03:06.129Z,-9.80
2018-03-02T02:03:39.818Z,-9.80
2018-03-02T02:04:13.519Z,-9.80
2018-03-02T02:04:47.213Z,-9.80
2018-03-02T02:05:20.900Z,-9.80
2018-03-02T02:05:54.611Z,-9.80
2018-03-02T02:06:28.311Z,-9.80
2018-03-02T02:07:01.992Z,-9.80
2018-03-02T02:07:35.704Z,-9.80
2018-03-02T02:08:09.402Z,-9.80
2018-03-02T02:08:43.144Z,-9.80
2018-03-02T02:09:16.848Z,-9.90
2018-03-02T02:09:52.093Z,-9.90
2018-03-02T02:10:25.778Z,-9.90
2018-03-02T02:10:59.486Z,-9.90
2018-03-02T02:11:33.178Z,-9.90
2018-03-02T02:12:06.840Z,-9.90
2018-03-02T02:12:40.522Z,-9.90
2018-03-02T02:13:14.218Z,-9.90
2018-03-02T02:13:47.907Z,-9.90
2018-03-02T02:14:21.592Z,-9.90
2018-03-02T02:14:54.952Z,-9.90
2018-03-02T02:15:28.646Z,-9.90
2018-03-02T02:16:02.350Z,-9.90
2018-03-02T02:16:36.052Z,-9.90
2018-03-02T02:17:09.735Z,-9.90
2018-03-02T02:17:43.403Z,-9.90
2018-03-02T02:18:17.109Z,-9.80
2018-03-02T02:18:50.468Z,-9.80
2018-03-02T02:19:24.162Z,-9.80
2018-03-02T02:19:57.860Z,-9.80
2018-03-02T02:20:31.535Z,-9.80
2018-03-02T02:21:05.240Z,-9.80
2018-03-02T02:21:38.924Z,-9.80
2018-03-02T02:22:12.601Z,-9.80
2018-03-02T02:22:46.286Z,-9.80
2018-03-02T02:23:19.974Z,-9.80
2018-03-02T02:23:54.434Z,-9.80
2018-03-02T02:24:28.111Z,-9.80
2018-03-02T02:25:01.779Z,-9.80
2018-03-02T02:25:35.467Z,-9.80
2018-03-02T02:26:09.013Z,-9.80
2018-03-02T02:26:42.705Z,-9.80
2018-03-02T02:27:17.151Z,-9.80
2018-03-02T02:27:50.822Z,-9.90
2018-03-02T02:28:25.289Z,-9.80
2018-03-02T02:28:58.992Z,-9.90
2018-03-02T02:29:32.683Z,-9.80
2018-03-02T02:30:06.441Z,-9.80
2018-03-02T02:30:40.130Z,-9.80
2018-03-02T02:31:13.859Z,-9.80
2018-03-02T02:31:47.246Z,-9.80
2018-03-02T02:32:20.936Z,-9.80
2018-03-02T02:32:54.793Z,-9.80
2018-03-02T02:33:28.140Z,-9.80
2018-03-02T02:34:01.845Z,-9.80
2018-03-02T02:34:35.545Z,-9.80
2018-03-02T02:35:08.952Z,-9.80
2018-03-02T02:35:42.662Z,-9.80
2018-03-02T02:36:16.068Z,-9.70
2018-03-02T02:36:50.556Z,-9.70
2018-03-02T02:37:24.245Z,-9.70
2018-03-02T02:37:57.612Z,-9.70
2018-03-02T02:38:31.312Z,-9.70
2018-03-02T02:39:04.536Z,-9.70
2018-03-02T02:39:38.222Z,-9.70
2018-03-02T02:40:11.565Z,-9.70
2018-03-02T02:40:45.246Z,-9.70
2018-03-02T02:41:18.989Z,-9.70
2018-03-02T02:41:52.335Z,-9.70
2018-03-02T02:42:26.022Z,-9.70
2018-03-02T02:43:00.145Z,-9.70
2018-03-02T02:43:34.581Z,-9.70
2018-03-02T02:44:08.254Z,-9.70
2018-03-02T02:44:41.938Z,-9.70
2018-03-02T02:45:15.279Z,-9.70
2018-03-02T02:45:48.971Z,-9.70
2018-03-02T02:46:22.686Z,-9.70
2018-03-02T02:46:57.151Z,-9.70
2018-03-02T02:47:30.841Z,-9.70
2018-03-02T02:48:04.538Z,-9.70
2018-03-02T02:48:38.221Z,-9.70
2018-03-02T02:49:11.903Z,-9.70
2018-03-02T02:49:45.243Z,-9.70
2018-03-02T02:50:19.697Z,-9.80
2018-03-02T02:50:53.392Z,-9.80
2018-03-02T02:51:27.141Z,-9.80
2018-03-02T02:52:00.838Z,-9.80
2018-03-02T02:52:34.204Z,-9.80
2018-03-02T02:53:08.657Z,-9.90
2018-03-02T02:53:42.350Z,-9.90
2018-03-02T02:54:16.046Z,-9.90
2018-03-02T02:54:49.746Z,-9.90
2018-03-02T02:55:23.430Z,-9.90
2018-03-02T02:55:57.146Z,-10.00
2018-03-02T02:56:30.860Z,-10.00
2018-03-02T02:57:04.558Z,-10.00
2018-03-02T02:57:38.231Z,-10.00
2018-03-02T02:58:12.683Z,-10.10
2018-03-02T02:58:46.372Z,-10.10
2018-03-02T02:59:20.063Z,-10.10
2018-03-02T02:59:53.751Z,-10.10
2018-03-02T03:00:27.448Z,-10.20
2018-03-02T03:01:01.154Z,-10.20
2018-03-02T03:01:34.879Z,-10.20
2018-03-02T03:02:09.336Z,-10.30
2018-03-02T03:02:44.437Z,-10.30
2018-03-02T03:03:18.145Z,-10.30
2018-03-02T03:03:51.823Z,-10.30
2018-03-02T03:04:25.495Z,-10.30
2018-03-02T03:04:59.191Z,-10.40
2018-03-02T03:05:32.902Z,-10.40
2018-03-02T03:06:06.611Z,-10.40
2018-03-02T03:06:40.343Z,-10.40
2018-03-02T03:07:14.806Z,-10.50
2018-03-02T03:07:48.499Z,-10.40
2018-03-02T03:08:22.190Z,-10.50
2018-03-02T03:08:55.879Z,-10.50
2018-03-02T03:09:29.571Z,-10.50
2018-03-02T03:10:03.271Z,-10.50
2018-03-02T03:10:36.990Z,-10.50
2018-03-02T03:11:11.459Z,-10.50
2018-03-02T03:11:45.182Z,-10.50
2018-03-02T03:12:19.665Z,-10.50
2018-03-02T03:12:53.040Z,-10.50
2018-03-02T03:13:26.720Z,-10.50
2018-03-02T03:14:00.406Z,-10.50
2018-03-02T03:14:33.751Z,-10.60
2018-03-02T03:15:08.216Z,-10.60
2018-03-02T03:15:41.895Z,-10.60
2018-03-02T03:16:15.574Z,-10.60
2018-03-02T03:16:48.977Z,-10.60
2018-03-02T03:17:22.660Z,-10.60
2018-03-02T03:17:56.356Z,-10.60
2018-03-02T03:18:30.050Z,-10.60
2018-03-02T03:19:03.727Z,-10.60
2018-03-02T03:19:37.425Z,-10.60
2018-03-02T03:20:11.115Z,-10.70
2018-03-02T03:20:44.786Z,-10.70
2018-03-02T03:21:18.468Z,-10.70
2018-03-02T03:21:52.162Z,-10.70
2018-03-02T03:22:25.824Z,-10.70
2018-03-02T03:23:00.279Z,-10.80
2018-03-02T03:23:33.969Z,-10.80
2018-03-02T03:24:07.664Z,-10.80
2018-03-02T03:24:41.348Z,-10.80
2018-03-02T03:25:15.037Z,-10.80
2018-03-02T03:25:48.718Z,-10.80
2018-03-02T03:26:22.418Z,-10.80
2018-03-02T03:26:56.431Z,-10.80
2018-03-02T03:27:30.106Z,-10.80
2018-03-02T03:28:03.485Z,-10.80
2018-03-02T03:28:37.176Z,-10.90
2018-03-02T03:29:11.076Z,-10.90
2018-03-02T03:29:44.746Z,-10.90
2018-03-02T03:30:18.430Z,-10.80
2018-03-02T03:30:52.124Z,-10.80
2018-03-02T03:31:25.830Z,-10.90
2018-03-02T03:31:59.552Z,-10.80
2018-03-02T03:32:33.222Z,-10.80
2018-03-02T03:33:06.887Z,-10.80
2018-03-02T03:33:40.578Z,-10.80
2018-03-02T03:34:14.262Z,-10.80
2018-03-02T03:34:48.006Z,-10.80
2018-03-02T03:35:22.478Z,-10.80
2018-03-02T03:35:56.150Z,-10.80
2018-03-02T03:36:29.510Z,-10.80
2018-03-02T03:37:03.260Z,-10.80
2018-03-02T03:37:36.974Z,-10.80
2018-03-02T03:38:11.441Z,-10.80
2018-03-02T03:38:45.132Z,-10.80
2018-03-02T03:39:18.854Z,-10.80
2018-03-02T03:39:53.369Z,-10.80
2018-03-02T03:40:27.070Z,-10.80
2018-03-02T03:41:01.523Z,-10.80
2018-03-02T03:41:35.219Z,-10.80
2018-03-02T03:42:08.919Z,-10.80
2018-03-02T03:42:42.598Z,-10.80
2018-03-02T03:43:15.610Z,-10.70
2018-03-02T03:43:49.731Z,-10.80
2018-03-02T03:44:23.423Z,-10.80
2018-03-02T03:44:57.109Z,-10.80
2018-03-02T03:45:30.802Z,-10.80
2018-03-02T03:46:04.489Z,-10.80
2018-03-02T03:46:38.173Z,-10.80
2018-03-02T03:47:12.642Z,-10.80
2018-03-02T03:47:46.336Z,-10.80
2018-03-02T03:48:20.021Z,-10.80
2018-03-02T03:48:53.701Z,-10.80
2018-03-02T03:49:27.451Z,-10.80
2018-03-02T03:50:00.811Z,-10.80
2018-03-02T03:50:35.269Z,-10.80
2018-03-02T03:51:08.969Z,-10.80
2018-03-02T03:51:42.659Z,-10.80
2018-03-02T03:52:16.388Z,-10.80
2018-03-02T03:52:50.896Z,-10.90
2018-03-02T03:53:25.345Z,-10.90
2018-03-02T03:53:59.054Z,-10.90
2018-03-02T03:54:32.760Z,-10.90
2018-03-02T03:55:06.448Z,-10.90
2018-03-02T03:55:40.830Z,-10.90
2018-03-02T03:56:14.525Z,-10.90
2018-03-02T03:56:48.220Z,-10.90
2018-03-02T03:57:22.291Z,-10.90
2018-03-02T03:57:55.470Z,-10.90
2018-03-02T03:58:29.177Z,-10.90
2018-03-02T03:59:02.865Z,-10.90
2018-03-02T03:59:36.580Z,-10.90
2018-03-02T04:00:09.600Z,-10.90
2018-03-02T04:00:43.308Z,-10.90
2018-03-02T04:01:16.992Z,-10.90
2018-03-02T04:01:50.699Z,-10.90
2018-03-02T04:02:24.443Z,-10.90
2018-03-02T04:02:58.911Z,-10.90
2018-03-02T04:03:32.267Z,-10.90
2018-03-02T04:04:05.970Z,-10.90
2018-03-02T04:04:39.689Z,-10.90
2018-03-02T04:05:13.045Z,-10.90
2018-03-02T04:05:46.734Z,-10.90
2018-03-02T04:06:20.438Z,-10.90
2018-03-02T04:06:54.113Z,-10.90
2018-03-02T04:07:27.828Z,-10.90
2018-03-02T04:08:01.181Z,-11.00
2018-03-02T04:08:34.537Z,-11.00
2018-03-02T04:09:08.973Z,-11.00
2018-03-02T04:09:42.674Z,-11.00
2018-03-02T04:10:16.165Z,-11.00
2018-03-02T04:10:49.867Z,-11.00
2018-03-02T04:11:23.543Z,-11.00
2018-03-02T04:11:57.230Z,-11.00
2018-03-02T04:12:30.947Z,-11.10
2018-03-02T04:13:04.619Z,-11.00
2018-03-02T04:13:38.298Z,-11.10
2018-03-02T04:14:11.997Z,-11.10
2018-03-02T04:14:45.682Z,-11.10
2018-03-02T04:15:19.174Z,-11.10
2018-03-02T04:15:52.865Z,-11.10
2018-03-02T04:16:26.649Z,-11.10
2018-03-02T04:17:00.330Z,-11.10
2018-03-02T04:17:34.346Z,-11.10
2018-03-02T04:18:08.049Z,-11.10
2018-03-02T04:18:41.736Z,-11.10
2018-03-02T04:19:15.487Z,-11.20
2018-03-02T04:19:49.241Z,-11.20
2018-03-02T04:20:23.747Z,-11.20
2018-03-02T04:20:58.258Z,-11.20
2018-03-02T04:21:32.728Z,-11.20
2018-03-02T04:22:06.435Z,-11.20
2018-03-02T04:22:40.529Z,-11.20
2018-03-02T04:23:14.746Z,-11.30
2018-03-02T04:23:49.310Z,-11.30
2018-03-02T04:24:23.006Z,-11.30
2018-03-02T04:24:56.689Z,-11.30
2018-03-02T04:25:30.358Z,-11.30
2018-03-02T04:26:03.387Z,-11.40
2018-03-02T04:26:37.652Z,-11.40
2018-03-02T04:27:11.344Z,-11.40
2018-03-02T04:27:45.438Z,-11.40
2018-03-02T04:28:19.840Z,-11.40
2018-03-02T04:28:53.514Z,-11.40
2018-03-02T04:29:27.194Z,-11.40
2018-03-02T04:30:01.200Z,-11.40
2018-03-02T04:30:35.671Z,-11.40
2018-03-02T04:31:09.362Z,-11.50
2018-03-02T04:31:43.050Z,-11.50
2018-03-02T04:32:16.758Z,-11.50
2018-03-02T04:32:50.476Z,-11.50
2018-03-02T04:33:24.194Z,-11.50
2018-03-02T04:33:57.895Z,-11.50
2018-03-02T04:34:32.506Z,-11.40
2018-03-02T04:35:06.214Z,-11.40
2018-03-02T04:35:39.572Z,-11.40
2018-03-02T04:36:13.267Z,-11.40
2018-03-02T04:36:46.977Z,-11.40
2018-03-02T04:37:20.662Z,-11.40
2018-03-02T04:37:54.381Z,-11.30
2018-03-02T04:38:28.079Z,-11.30
2018-03-02T04:39:02.539Z,-11.30
2018-03-02T04:39:36.244Z,-11.30
2018-03-02T04:40:09.964Z,-11.30
2018-03-02T04:40:43.650Z,-11.20
2018-03-02T04:41:18.121Z,-11.10
2018-03-02T04:41:51.819Z,-11.20
2018-03-02T04:42:25.516Z,-11.10
2018-03-02T04:42:59.263Z,-11.10
2018-03-02T04:43:32.644Z,-11.00
2018-03-02T04:44:06.438Z,-11.00
2018-03-02T04:44:39.816Z,-11.00
2018-03-02T04:45:13.495Z,-10.90
2018-03-02T04:45:47.178Z,-10.90
2018-03-02T04:46:21.642Z,-10.80
2018-03-02T04:46:55.433Z,-10.80
2018-03-02T04:47:29.318Z,-10.80
2018-03-02T04:48:03.058Z,-10.80
2018-03-02T04:48:37.530Z,-10.70
2018-03-02T04:49:11.222Z,-10.70
2018-03-02T04:49:44.607Z,-10.70
2018-03-02T04:50:18.321Z,-10.60
2018-03-02T04:50:52.827Z,-10.60
2018-03-02T04:51:26.526Z,-10.60
2018-03-02T04:52:00.998Z,-10.50
2018-03-02T04:52:34.683Z,-10.60
2018-03-02T04:53:08.377Z,-10.50
2018-03-02T04:53:42.062Z,-10.50
2018-03-02T04:54:15.725Z,-10.50
2018-03-02T04:54:49.420Z,-10.40
2018-03-02T04:55:23.111Z,-10.40
2018-03-02T04:55:56.882Z,-10.40
2018-03-02T04:56:31.333Z,-10.30
2018-03-02T04:57:04.688Z,-10.40
2018-03-02T04:57:39.366Z,-10.30
2018-03-02T04:58:13.843Z,-10.30
2018-03-02T04:58:47.523Z,-10.30
2018-03-02T04:59:21.228Z,-10.30
2018-03-02T04:59:54.959Z,-10.30
2018-03-02T05:00:29.409Z,-10.30
2018-03-02T05:01:03.081Z,-10.30
2018-03-02T05:01:36.775Z,-10.30
2018-03-02T05:02:10.467Z,-10.30
2018-03-02T05:02:44.166Z,-10.30
2018-03-02T05:03:17.884Z,-10.20
2018-03-02T05:03:51.554Z,-10.30
2018-03-02T05:04:25.246Z,-10.20
2018-03-02T05:04:58.931Z,-10.20
2018-03-02T05:05:32.655Z,-10.20
2018-03-02T05:06:06.018Z,-10.20
2018-03-02T05:06:39.748Z,-10.20
2018-03-02T05:07:14.212Z,-10.20
2018-03-02T05:07:47.902Z,-10.20
2018-03-02T05:08:22.053Z,-10.20
2018-03-02T05:08:56.510Z,-10.20
2018-03-02T05:09:30.213Z,-10.30
2018-03-02T05:10:03.898Z,-10.20
2018-03-02T05:10:37.422Z,-10.30
2018-03-02T05:11:11.886Z,-10.30
2018-03-02T05:11:45.574Z,-10.30
2018-03-02T05:12:19.270Z,-10.30
2018-03-02T05:12:52.639Z,-10.30
2018-03-02T05:13:26.360Z,-10.30
2018-03-02T05:14:00.069Z,-10.30
2018-03-02T05:14:34.522Z,-10.20
2018-03-02T05:15:08.561Z,-10.30
2018-03-02T05:15:42.269Z,-10.20
2018-03-02T05:16:16.721Z,-10.20
2018-03-02T05:16:50.410Z,-10.20
2018-03-02T05:17:24.122Z,-10.20
2018-03-02T05:17:57.847Z,-10.20
2018-03-02T05:18:32.339Z,-10.20
2018-03-02T05:19:06.543Z,-10.20
2018-03-02T05:19:40.351Z,-10.20
2018-03-02T05:20:14.806Z,-10.20
2018-03-02T05:20:48.508Z,-10.20
2018-03-02T05:21:22.221Z,-10.10
2018-03-02T05:21:55.914Z,-10.20
2018-03-02T05:22:29.597Z,-10.10
2018-03-02T05:23:03.267Z,-10.10
2018-03-02T05:23:36.977Z,-10.10
2018-03-02T05:24:11.446Z,-10.10
2018-03-02T05:24:45.132Z,-10.10
2018-03-02T05:25:18.828Z,-10.10
2018-03-02T05:25:52.330Z,-10.10
2018-03-02T05:26:26.019Z,-10.10
2018-03-02T05:26:59.706Z,-10.10
2018-03-02T05:27:33.405Z,-10.00
2018-03-02T05:28:07.093Z,-10.00
2018-03-02T05:28:40.820Z,-10.00
2018-03-02T05:29:15.286Z,-10.00
2018-03-02T05:29:48.975Z,-10.00
2018-03-02T05:30:22.693Z,-9.90
2018-03-02T05:30:56.395Z,-9.90
2018-03-02T05:31:30.871Z,-9.90
2018-03-02T05:32:04.226Z,-9.90
2018-03-02T05:32:37.961Z,-9.90
2018-03-02T05:33:11.945Z,-9.90
2018-03-02T05:33:45.683Z,-9.90
2018-03-02T05:34:19.376Z,-9.90
2018-03-02T05:34:53.578Z,-9.90
2018-03-02T05:35:27.089Z,-9.90
2018-03-02T05:36:00.806Z,-9.90
2018-03-02T05:36:34.523Z,-9.90
2018-03-02T05:37:08.946Z,-10.00
2018-03-02T05:37:42.636Z,-10.00
2018-03-02T05:38:17.091Z,-10.00
2018-03-02T05:38:50.801Z,-10.10
2018-03-02T05:39:24.507Z,-10.10
2018-03-02T05:39:58.979Z,-10.10
2018-03-02T05:40:32.708Z,-10.10
2018-03-02T05:41:07.180Z,-10.10
2018-03-02T05:41:40.890Z,-10.10
2018-03-02T05:42:14.590Z,-10.10
2018-03-02T05:42:49.042Z,-10.10
2018-03-02T05:43:22.766Z,-10.10
2018-03-02T05:43:57.154Z,-10.10
2018-03-02T05:44:31.464Z,-10.10
2018-03-02T05:45:04.842Z,-10.10
2018-03-02T05:45:38.577Z,-10.10
2018-03-02T05:46:12.280Z,-10.10
2018-03-02T05:46:46.462Z,-10.10
2018-03-02T05:47:20.243Z,-10.10
2018-03-02T05:47:53.950Z,-10.10
2018-03-02T05:48:28.432Z,-10.00
2018-03-02T05:49:02.188Z,-10.00
2018-03-02T05:49:35.877Z,-10.00
2018-03-02T05:50:09.626Z,-10.00
2018-03-02T05:50:43.384Z,-10.00
2018-03-02T05:51:17.098Z,-10.00
2018-03-02T05:51:50.778Z,-9.90
2018-03-02T05:52:24.471Z,-9.90
2018-03-02T05:52:58.198Z,-9.90
2018-03-02T05:53:32.662Z,-9.90
2018-03-02T05:54:06.394Z,-9.90
2018-03-02T05:54:40.883Z,-9.80
2018-03-02T05:55:14.575Z,-9.80
2018-03-02T05:55:49.783Z,-9.80
2018-03-02T05:56:23.468Z,-9.80
2018-03-02T05:56:57.179Z,-9.70
2018-03-02T05:57:30.886Z,-9.70
2018-03-02T05:58:04.709Z,-9.70
2018-03-02T05:58:38.398Z,-9.70
2018-03-02T05:59:11.799Z,-9.70
2018-03-02T05:59:45.499Z,-9.70
2018-03-02T06:00:19.195Z,-9.60
2018-03-02T06:00:53.554Z,-9.60
2018-03-02T06:01:27.266Z,-9.60
2018-03-02T06:02:00.954Z,-9.60
2018-03-02T06:02:34.647Z,-9.60
2018-03-02T06:03:08.397Z,-9.60
2018-03-02T06:03:42.855Z,-9.50
2018-03-02T06:04:16.596Z,-9.50
2018-03-02T06:04:50.296Z,-9.50
2018-03-02T06:05:24.743Z,-9.50
2018-03-02T06:05:59.405Z,-9.50
2018-03-02T06:06:33.839Z,-9.50
2018-03-02T06:07:07.526Z,-9.50
2018-03-02T06:07:41.218Z,-9.40
2018-03-02T06:08:14.943Z,-9.40
2018-03-02T06:08:48.660Z,-9.40
2018-03-02T06:09:22.387Z,-9.40
2018-03-02T06:09:56.106Z,-9.40
2018-03-02T06:10:29.845Z,-9.40
2018-03-02T06:11:04.289Z,-9.30
2018-03-02T06:11:38.177Z,-9.30
2018-03-02T06:12:11.539Z,-9.30
2018-03-02T06:12:46.044Z,-9.30
2018-03-02T06:13:20.478Z,-9.30
2018-03-02T06:13:54.193Z,-9.30
2018-03-02T06:14:28.018Z,-9.20
2018-03-02T06:15:01.709Z,-9.20
2018-03-02T06:15:35.428Z,-9.20
2018-03-02T06:16:09.186Z,-9.20
2018-03-02T06:16:42.950Z,-9.20
2018-03-02T06:17:16.667Z,-9.10
2018-03-02T06:17:50.333Z,-9.10
2018-03-02T06:18:23.855Z,-9.10
2018-03-02T06:18:57.552Z,-9.10
2018-03-02T06:19:32.026Z,-9.10
2018-03-02T06:20:05.733Z,-9.00
2018-03-02T06:20:39.430Z,-9.00
2018-03-02T06:21:13.117Z,-9.00
2018-03-02T06:21:46.509Z,-9.00
2018-03-02T06:22:20.986Z,-8.90
2018-03-02T06:22:54.693Z,-9.00
2018-03-02T06:23:28.074Z,-8.90
2018-03-02T06:24:01.566Z,-8.90
2018-03-02T06:24:35.271Z,-8.90
2018-03-02T06:25:09.708Z,-8.80
2018-03-02T06:25:43.422Z,-8.90
2018-03-02T06:26:17.123Z,-8.80
2018-03-02T06:26:50.811Z,-8.80
2018-03-02T06:27:24.492Z,-8.80
2018-03-02T06:27:58.404Z,-8.80
2018-03-02T06:28:32.225Z,-8.80
2018-03-02T06:29:06.680Z,-8.70
2018-03-02T06:29:40.389Z,-8.70
2018-03-02T06:30:14.087Z,-8.70
2018-03-02T06:30:47.751Z,-8.70
2018-03-02T06:31:21.089Z,-8.70
2018-03-02T06:31:55.537Z,-8.60
2018-03-02T06:32:29.229Z,-8.60
2018-03-02T06:33:02.932Z,-8.60
2018-03-02T06:33:36.628Z,-8.60
2018-03-02T06:34:11.290Z,-8.60
2018-03-02T06:34:45.094Z,-8.60
2018-03-02T06:35:18.772Z,-8.50
2018-03-02T06:35:53.230Z,-8.50
2018-03-02T06:36:26.915Z,-8.50
2018-03-02T06:37:00.681Z,-8.50
2018-03-02T06:37:34.502Z,-8.50
2018-03-02T06:38:08.061Z,-8.50
2018-03-02T06:38:41.998Z,-8.40
2018-03-02T06:39:16.124Z,-8.40
2018-03-02T06:39:50.263Z,-8.40
2018-03-02T06:40:23.953Z,-8.40
2018-03-02T06:40:57.701Z,-8.30
2018-03-02T06:41:32.135Z,-8.30
2018-03-02T06:42:05.845Z,-8.30
2018-03-02T06:42:39.533Z,-8.30
2018-03-02T06:43:12.899Z,-8.20
2018-03-02T06:43:46.582Z,-8.20
2018-03-02T06:44:21.031Z,-8.20
2018-03-02T06:44:54.770Z,-8.20
2018-03-02T06:45:29.246Z,-8.10
2018-03-02T06:46:02.658Z,-8.10
2018-03-02T06:46:37.098Z,-8.10
2018-03-02T06:47:10.803Z,-8.10
2018-03-02T06:47:44.467Z,-8.00
2018-03-02T06:48:18.154Z,-8.00
2018-03-02T06:48:52.591Z,-7.90
2018-03-02T06:49:26.282Z,-7.90
2018-03-02T06:50:00.002Z,-7.90
2018-03-02T06:50:34.449Z,-7.80
2018-03-02T06:51:08.144Z,-7.80
2018-03-02T06:51:41.824Z,-7.80
2018-03-02T06:52:16.078Z,-7.70
2018-03-02T06:52:49.772Z,-7.80
2018-03-02T06:53:23.443Z,-7.70
2018-03-02T06:53:57.139Z,-7.70
2018-03-02T06:54:30.828Z,-7.70
2018-03-02T06:55:04.352Z,-7.70
2018-03-02T06:55:38.816Z,-7.60
2018-03-02T06:56:12.509Z,-7.60
2018-03-02T06:56:46.199Z,-7.60
2018-03-02T06:57:19.888Z,-7.60
2018-03-02T06:57:53.570Z,-7.50
2018-03-02T06:58:27.235Z,-7.50
2018-03-02T06:59:01.694Z,-7.50
2018-03-02T06:59:35.086Z,-7.40
2018-03-02T07:00:08.173Z,-7.40
2018-03-02T07:00:41.863Z,-7.40
2018-03-02T07:01:15.543Z,-7.40
2018-03-02T07:01:49.246Z,-7.40
2018-03-02T07:02:22.936Z,-7.30
2018-03-02T07:02:57.404Z,-7.30
2018-03-02T07:03:31.139Z,-7.30
2018-03-02T07:04:05.335Z,-7.20
2018-03-02T07:04:39.798Z,-7.20
2018-03-02T07:05:13.323Z,-7.20
2018-03-02T07:05:47.020Z,-7.20
2018-03-02T07:06:20.709Z,-7.20
2018-03-02T07:06:54.391Z,-7.20
2018-03-02T07:07:28.118Z,-7.20
2018-03-02T07:08:01.486Z,-7.10
2018-03-02T07:08:35.958Z,-7.10
2018-03-02T07:09:09.675Z,-7.10
2018-03-02T07:09:44.161Z,-7.10
2018-03-02T07:10:17.905Z,-7.10